Costa Atlantica — IBLQ — position and weather

sailwx.info

Track history (hours):
 
Tides and Currents Weather Stations Pressure Air Temp Water Temp Dewpoint Dewpoint Depression Visibility Wind Speed Wind Dir Waves Ship Positions

Costa Atlantica (Italy)

Last reported at 2019-Jun-16 22:07 UTC. Time now 2019-Jun-17 18:46 UTC.
Position N 25°20' E 121°14'.

Length 292 m; draft 8 m.

Type: Ship. MMSI: 247595017.

Date/timePositionNaut miles runAvg speedWind from/ knotsBaromVisibWave heightAir tempDewpointWater temp
2019-Jun-16 22:07N 25°20' E 121°14'917.8
2019-Jun-16 21:35N 25°22' E 121°24'218.0
2019-Jun-16 21:29N 25°23' E 121°26'918.3
2019-Jun-16 21:00N 25°24' E 121°36'1118.2
2019-Jun-16 20:23N 25°22' E 121°48'617.0
2019-Jun-16 20:00N 25°21' E 121°55'1116.8
2019-Jun-16 19:22N 25°20' E 122°07'817.5
2019-Jun-16 18:54N 25°19' E 122°16'716.9
2019-Jun-16 18:30N 25°18' E 122°23'816.9
2019-Jun-16 18:01N 25°17' E 122°33'  
2019-Jun-14 13:18N 25°21' E 122°04'1420.0
2019-Jun-14 12:37N 25°22' E 121°49'219.2
2019-Jun-14 12:30N 25°22' E 121°46'1018.8
2019-Jun-14 11:59N 25°24' E 121°36'918.2
2019-Jun-14 11:29N 25°22' E 121°26'1018.1
2019-Jun-14 10:56N 25°19' E 121°16'918.6
2019-Jun-14 10:27N 25°16' E 121°06'919.5
2019-Jun-14 10:00N 25°14' E 120°57'43417.7
2019-Jun-13 09:35N 22°05' E 113°51'5 8.4
2019-Jun-13 09:01N 22°10' E 113°50'715.5
2019-Jun-13 08:35N 22°17' E 113°48'114.8
2019-Jun-13 08:30N 22°18' E 113°48'510.2
2019-Jun-13 08:00N 22°23' E 113°50'7 9.4
2019-Jun-13 07:16N 22°28' E 113°54'0 0.0
2019-Jun-13 02:28N 22°28' E 113°54'0 0.0
2019-Jun-13 00:52N 22°28' E 113°54'0 0.0
2019-Jun-13 00:16N 22°28' E 113°54'0 0.0
2019-Jun-12 23:32N 22°28' E 113°54'0 0.3
2019-Jun-12 23:16N 22°28' E 113°54'4 7.0
2019-Jun-12 22:39N 22°25' E 113°51'213.3
2019-Jun-12 22:29N 22°23' E 113°50'714.9
2019-Jun-12 22:01N 22°16' E 113°49'815.7
2019-Jun-12 21:30N 22°09' E 113°51'611.6
2019-Jun-12 21:01N 22°03' E 113°51'815.7
2019-Jun-12 20:30N 21°55' E 113°52'816.4
2019-Jun-12 20:01N 21°47' E 113°53'917.4
2019-Jun-12 19:30N 21°39' E 113°57'1314.8
2019-Jun-12 18:37N 21°35' E 114°11'46219.9
2019-Jun-11 19:22N 25°23' E 121°29'1322.7
2019-Jun-11 18:46N 25°23' E 121°44'822.4
2019-Jun-11 18:26N 25°22' E 121°52'1221.3
2019-Jun-11 17:52N 25°20' E 122°06'821.7
2019-Jun-11 17:30N 25°19' E 122°14'1221.1
2019-Jun-11 16:57N 25°18' E 122°27'1119.9
2019-Jun-11 16:24N 25°16' E 122°39'16 0.6
2019-Jun-10 12:17N 25°18' E 122°21'1421.6
2019-Jun-10 11:39N 25°20' E 122°06'422.6
2019-Jun-10 11:29N 25°21' E 122°02'1223.0
2019-Jun-10 10:58N 25°22' E 121°49'1322.7
2019-Jun-10 10:23N 25°23' E 121°34'1023.1
2019-Jun-10 09:58N 25°20' E 121°24'2022.4
2019-Jun-10 09:03N 25°14' E 121°03'223.6
2019-Jun-10 08:58N 25°13' E 121°01'43417.8
2019-Jun-09 08:34N 22°14' E 113°49'115.3
2019-Jun-09 08:30N 22°15' E 113°49'713.9
2019-Jun-09 08:00N 22°22' E 113°50'612.7
2019-Jun-09 07:30N 22°27' E 113°54'2 0.2
2019-Jun-08 23:53N 22°28' E 113°54'0 0.4
2019-Jun-08 23:22N 22°28' E 113°54'3 7.5
2019-Jun-08 22:58N 22°26' E 113°52'613.5
2019-Jun-08 22:30N 22°20' E 113°49'714.8
2019-Jun-08 22:00N 22°13' E 113°49'612.6
2019-Jun-08 21:30N 22°07' E 113°51'5 9.7
2019-Jun-08 21:00N 22°02' E 113°51'816.6
2019-Jun-08 20:30N 21°54' E 113°51'713.5
2019-Jun-08 20:00N 21°47' E 113°50'712.8
2019-Jun-08 19:29N 21°41' E 113°47'44 5.0
2019-Jun-08 10:40N 22°18' E 114°13'0 2.4
2019-Jun-08 10:30N 22°18' E 114°13'0 0.7
2019-Jun-08 09:56N 22°18' E 114°13'0 0.0
2019-Jun-08 09:30N 22°18' E 114°13'0 0.1
2019-Jun-08 08:56N 22°18' E 114°13'0 0.1
2019-Jun-08 08:26N 22°18' E 114°13'0 0.0
2019-Jun-08 08:00N 22°18' E 114°13'0 0.0
2019-Jun-08 07:26N 22°18' E 114°13'0 0.1
2019-Jun-08 07:00N 22°18' E 114°13'0 0.0
2019-Jun-08 06:30N 22°18' E 114°13'0 0.0
2019-Jun-08 06:00N 22°18' E 114°13'0 0.0
2019-Jun-08 05:30N 22°18' E 114°13'0 0.0
2019-Jun-08 05:00N 22°18' E 114°13'0 0.1
2019-Jun-08 04:30N 22°18' E 114°13'0 0.0
2019-Jun-08 03:50N 22°18' E 114°13'0 0.0
2019-Jun-08 03:24N 22°18' E 114°13'0 0.0
2019-Jun-08 03:00N 22°18' E 114°13'0 0.1
2019-Jun-08 02:30N 22°18' E 114°13'0 0.0
2019-Jun-08 01:56N 22°18' E 114°13'0 0.1
2019-Jun-08 01:30N 22°18' E 114°13'0 0.0
2019-Jun-08 00:57N 22°18' E 114°13'0 0.0
2019-Jun-08 00:18N 22°18' E 114°13'0 0.2
2019-Jun-08 00:00N 22°18' E 114°13'0 0.6
2019-Jun-07 23:30N 22°18' E 114°13'4 7.1
2019-Jun-07 22:59N 22°16' E 114°16'610.7
2019-Jun-07 22:25N 22°14' E 114°22'30 2.2
2019-Jun-07 09:01N 22°06' E 113°51'012.1
2019-Jun-07 08:59N 22°06' E 113°51'712.0
2019-Jun-07 08:24N 22°13' E 113°49'616.0
2019-Jun-07 08:00N 22°20' E 113°49'10 3.0
2019-Jun-07 04:31N 22°28' E 113°54'0 0.0
2019-Jun-07 04:01N 22°28' E 113°54'0 0.0
2019-Jun-07 02:16N 22°28' E 113°54'0 0.0
2019-Jun-07 01:43N 22°28' E 113°54'0 0.0
2019-Jun-07 00:52N 22°28' E 113°54'0 0.0
2019-Jun-07 00:01N 22°28' E 113°54'0 0.0
2019-Jun-06 23:59N 22°28' E 113°54'2 2.9
2019-Jun-06 23:17N 22°27' E 113°53'4 9.8
2019-Jun-06 22:49N 22°23' E 113°50'413.2
2019-Jun-06 22:30N 22°19' E 113°48'  
Track history (hours):
 
Tides and Currents Weather Stations Pressure Air Temp Water Temp Dewpoint Dewpoint Depression Visibility Wind Speed Wind Dir Waves Ship Positions

Costa Atlantica (Italy)

Last reported at 2019-Jun-16 22:07 UTC. Time now 2019-Jun-17 18:46 UTC.
Position N 25°20' E 121°14'.

Length 292 m; draft 8 m.

Type: Ship. MMSI: 247595017.

Date/timePositionNaut miles runAvg speedWind from/ knotsBaromVisibWave heightAir tempDewpointWater temp
2019-Jun-16 22:07N 25°20' E 121°14'917.8
2019-Jun-16 21:35N 25°22' E 121°24'218.0
2019-Jun-16 21:29N 25°23' E 121°26'918.3
2019-Jun-16 21:00N 25°24' E 121°36'1118.2
2019-Jun-16 20:23N 25°22' E 121°48'617.0
2019-Jun-16 20:00N 25°21' E 121°55'1116.8
2019-Jun-16 19:22N 25°20' E 122°07'817.5
2019-Jun-16 18:54N 25°19' E 122°16'716.9
2019-Jun-16 18:30N 25°18' E 122°23'816.9
2019-Jun-16 18:01N 25°17' E 122°33'  
2019-Jun-14 13:18N 25°21' E 122°04'1420.0
2019-Jun-14 12:37N 25°22' E 121°49'219.2
2019-Jun-14 12:30N 25°22' E 121°46'1018.8
2019-Jun-14 11:59N 25°24' E 121°36'918.2
2019-Jun-14 11:29N 25°22' E 121°26'1018.1
2019-Jun-14 10:56N 25°19' E 121°16'918.6
2019-Jun-14 10:27N 25°16' E 121°06'919.5
2019-Jun-14 10:00N 25°14' E 120°57'43417.7
2019-Jun-13 09:35N 22°05' E 113°51'5 8.4
2019-Jun-13 09:01N 22°10' E 113°50'715.5
2019-Jun-13 08:35N 22°17' E 113°48'114.8
2019-Jun-13 08:30N 22°18' E 113°48'510.2
2019-Jun-13 08:00N 22°23' E 113°50'7 9.4
2019-Jun-13 07:16N 22°28' E 113°54'0 0.0
2019-Jun-13 02:28N 22°28' E 113°54'0 0.0
2019-Jun-13 00:52N 22°28' E 113°54'0 0.0
2019-Jun-13 00:16N 22°28' E 113°54'0 0.0
2019-Jun-12 23:32N 22°28' E 113°54'0 0.3
2019-Jun-12 23:16N 22°28' E 113°54'4 7.0
2019-Jun-12 22:39N 22°25' E 113°51'213.3
2019-Jun-12 22:29N 22°23' E 113°50'714.9
2019-Jun-12 22:01N 22°16' E 113°49'815.7
2019-Jun-12 21:30N 22°09' E 113°51'611.6
2019-Jun-12 21:01N 22°03' E 113°51'815.7
2019-Jun-12 20:30N 21°55' E 113°52'816.4
2019-Jun-12 20:01N 21°47' E 113°53'917.4
2019-Jun-12 19:30N 21°39' E 113°57'1314.8
2019-Jun-12 18:37N 21°35' E 114°11'46219.9
2019-Jun-11 19:22N 25°23' E 121°29'1322.7
2019-Jun-11 18:46N 25°23' E 121°44'822.4
2019-Jun-11 18:26N 25°22' E 121°52'1221.3
2019-Jun-11 17:52N 25°20' E 122°06'821.7
2019-Jun-11 17:30N 25°19' E 122°14'1221.1
2019-Jun-11 16:57N 25°18' E 122°27'1119.9
2019-Jun-11 16:24N 25°16' E 122°39'16 0.6
2019-Jun-10 12:17N 25°18' E 122°21'1421.6
2019-Jun-10 11:39N 25°20' E 122°06'422.6
2019-Jun-10 11:29N 25°21' E 122°02'1223.0
2019-Jun-10 10:58N 25°22' E 121°49'1322.7
2019-Jun-10 10:23N 25°23' E 121°34'1023.1
2019-Jun-10 09:58N 25°20' E 121°24'2022.4
2019-Jun-10 09:03N 25°14' E 121°03'223.6
2019-Jun-10 08:58N 25°13' E 121°01'43417.8
2019-Jun-09 08:34N 22°14' E 113°49'115.3
2019-Jun-09 08:30N 22°15' E 113°49'713.9
2019-Jun-09 08:00N 22°22' E 113°50'612.7
2019-Jun-09 07:30N 22°27' E 113°54'2 0.2
2019-Jun-08 23:53N 22°28' E 113°54'0 0.4
2019-Jun-08 23:22N 22°28' E 113°54'3 7.5
2019-Jun-08 22:58N 22°26' E 113°52'613.5
2019-Jun-08 22:30N 22°20' E 113°49'714.8
2019-Jun-08 22:00N 22°13' E 113°49'612.6
2019-Jun-08 21:30N 22°07' E 113°51'5 9.7
2019-Jun-08 21:00N 22°02' E 113°51'816.6
2019-Jun-08 20:30N 21°54' E 113°51'713.5
2019-Jun-08 20:00N 21°47' E 113°50'712.8
2019-Jun-08 19:29N 21°41' E 113°47'44 5.0
2019-Jun-08 10:40N 22°18' E 114°13'0 2.4
2019-Jun-08 10:30N 22°18' E 114°13'0 0.7
2019-Jun-08 09:56N 22°18' E 114°13'0 0.0
2019-Jun-08 09:30N 22°18' E 114°13'0 0.1
2019-Jun-08 08:56N 22°18' E 114°13'0 0.1
2019-Jun-08 08:26N 22°18' E 114°13'0 0.0
2019-Jun-08 08:00N 22°18' E 114°13'0 0.0
2019-Jun-08 07:26N 22°18' E 114°13'0 0.1
2019-Jun-08 07:00N 22°18' E 114°13'0 0.0
2019-Jun-08 06:30N 22°18' E 114°13'0 0.0
2019-Jun-08 06:00N 22°18' E 114°13'0 0.0
2019-Jun-08 05:30N 22°18' E 114°13'0 0.0
2019-Jun-08 05:00N 22°18' E 114°13'0 0.1
2019-Jun-08 04:30N 22°18' E 114°13'0 0.0
2019-Jun-08 03:50N 22°18' E 114°13'0 0.0
2019-Jun-08 03:24N 22°18' E 114°13'0 0.0
2019-Jun-08 03:00N 22°18' E 114°13'0 0.1
2019-Jun-08 02:30N 22°18' E 114°13'0 0.0
2019-Jun-08 01:56N 22°18' E 114°13'0 0.1
2019-Jun-08 01:30N 22°18' E 114°13'0 0.0
2019-Jun-08 00:57N 22°18' E 114°13'0 0.0
2019-Jun-08 00:18N 22°18' E 114°13'0 0.2
2019-Jun-08 00:00N 22°18' E 114°13'0 0.6
2019-Jun-07 23:30N 22°18' E 114°13'4 7.1
2019-Jun-07 22:59N 22°16' E 114°16'610.7
2019-Jun-07 22:25N 22°14' E 114°22'30 2.2
2019-Jun-07 09:01N 22°06' E 113°51'012.1
2019-Jun-07 08:59N 22°06' E 113°51'712.0
2019-Jun-07 08:24N 22°13' E 113°49'616.0
2019-Jun-07 08:00N 22°20' E 113°49'10 3.0
2019-Jun-07 04:31N 22°28' E 113°54'0 0.0
2019-Jun-07 04:01N 22°28' E 113°54'0 0.0
2019-Jun-07 02:16N 22°28' E 113°54'0 0.0
2019-Jun-07 01:43N 22°28' E 113°54'0 0.0
2019-Jun-07 00:52N 22°28' E 113°54'0 0.0
2019-Jun-07 00:01N 22°28' E 113°54'0 0.0
2019-Jun-06 23:59N 22°28' E 113°54'2 2.9
2019-Jun-06 23:17N 22°27' E 113°53'4 9.8
2019-Jun-06 22:49N 22°23' E 113°50'413.2
2019-Jun-06 22:30N 22°19' E 113°48'  

Dump ship's entire track history